createdAt,value
2023-04-26T00:01:28.693Z,98233.03
2023-04-26T00:03:56.622Z,98240.66
2023-04-26T00:06:23.534Z,98237.28
2023-04-26T00:08:50.580Z,98236.41
2023-04-26T00:11:20.222Z,98235.59
2023-04-26T00:13:48.936Z,98236.44
2023-04-26T00:16:16.880Z,98241.53
2023-04-26T00:18:46.889Z,98245.78
2023-04-26T00:21:19.747Z,98241.53
2023-04-26T00:23:46.486Z,98229.66
2023-04-26T00:26:13.040Z,98237.28
2023-04-26T00:28:39.583Z,98238.16
2023-04-26T00:31:06.068Z,98235.59
2023-04-26T00:33:32.792Z,98238.19
2023-04-26T00:35:59.330Z,98242.41
2023-04-26T00:38:28.266Z,98247.53
2023-04-26T00:40:54.687Z,98244.97
2023-04-26T00:43:23.516Z,98249.25
2023-04-26T00:45:50.509Z,98250.09
2023-04-26T00:48:18.206Z,98258.59
2023-04-26T00:50:45.053Z,98255.16
2023-04-26T00:53:14.673Z,98251.78
2023-04-26T00:55:42.329Z,98253.50
2023-04-26T00:58:09.015Z,98247.56
2023-04-26T01:00:35.555Z,98250.94
2023-04-26T01:03:02.206Z,98247.56
2023-04-26T01:05:28.988Z,98252.66
2023-04-26T01:07:56.096Z,98252.66
2023-04-26T01:10:22.858Z,98248.41
2023-04-26T01:12:50.127Z,98245.88
2023-04-26T01:15:19.475Z,98262.81
2023-04-26T01:17:49.699Z,98261.97
2023-04-26T01:20:16.356Z,98257.72
2023-04-26T01:22:42.883Z,98266.22
2023-04-26T01:25:12.207Z,98267.91
2023-04-26T01:27:39.271Z,98266.19
2023-04-26T01:30:06.510Z,98264.47
2023-04-26T01:32:33.047Z,98259.38
2023-04-26T01:35:00.719Z,98255.13
2023-04-26T01:37:27.358Z,98268.69
2023-04-26T01:39:54.108Z,98261.94
2023-04-26T01:42:21.700Z,98265.31
2023-04-26T01:44:48.204Z,98258.50
2023-04-26T01:47:14.621Z,98268.66
2023-04-26T01:49:41.666Z,98261.88
2023-04-26T01:52:08.283Z,98273.75
2023-04-26T01:54:37.483Z,98275.41
2023-04-26T01:57:04.419Z,98270.31
2023-04-26T01:59:31.108Z,98271.16
2023-04-26T02:01:57.654Z,98271.97
2023-04-26T02:04:24.389Z,98277.03
2023-04-26T02:06:50.927Z,98274.47
2023-04-26T02:09:18.363Z,98277.03
2023-04-26T02:11:45.426Z,98274.47
2023-04-26T02:14:12.049Z,98279.53
2023-04-26T02:16:40.533Z,98272.72
2023-04-26T02:19:10.908Z,98271.84
2023-04-26T02:22:16.727Z,98267.59
2023-04-26T02:24:53.508Z,98273.50
2023-04-26T02:27:20.132Z,98268.41
2023-04-26T02:29:46.852Z,98270.94
2023-04-26T02:32:14.373Z,98271.78
2023-04-26T02:34:43.045Z,98272.59
2023-04-26T02:37:09.630Z,98274.31
2023-04-26T02:39:36.478Z,98273.50
2023-04-26T02:42:03.001Z,98270.06
2023-04-26T02:45:07.894Z,98265.78
2023-04-26T02:47:36.921Z,98268.28
2023-04-26T02:50:14.993Z,98270.84
2023-04-26T02:52:41.786Z,98270.84
2023-04-26T02:55:09.167Z,98265.75
2023-04-26T02:57:35.748Z,98258.94
2023-04-26T03:00:02.346Z,98262.31
2023-04-26T03:02:28.877Z,98270.75
2023-04-26T03:04:55.999Z,98269.06
2023-04-26T03:07:22.764Z,98270.72
2023-04-26T03:09:49.181Z,98275.75
2023-04-26T03:12:15.730Z,98279.16
2023-04-26T03:14:42.202Z,98276.53
2023-04-26T03:17:08.632Z,98276.56
2023-04-26T03:19:35.479Z,98272.34
2023-04-26T03:22:02.746Z,98276.53
2023-04-26T03:24:29.279Z,98273.94
2023-04-26T03:26:55.773Z,98288.34
2023-04-26T03:29:22.514Z,98284.06
2023-04-26T03:31:49.105Z,98285.78
2023-04-26T03:34:37.083Z,98285.78
2023-04-26T03:37:03.506Z,98280.72
2023-04-26T03:39:30.095Z,98284.06
2023-04-26T03:41:56.522Z,98287.44
2023-04-26T03:44:22.993Z,98283.13
2023-04-26T03:46:49.493Z,98284.81
2023-04-26T03:49:16.038Z,98292.41
2023-04-26T03:51:42.705Z,98288.16
2023-04-26T03:54:09.147Z,98293.22
2023-04-26T03:56:36.687Z,98291.47
2023-04-26T03:59:03.172Z,98294.84
2023-04-26T04:01:29.613Z,98297.38
2023-04-26T04:03:56.578Z,98296.53
2023-04-26T04:06:23.343Z,98307.53
2023-04-26T04:08:50.057Z,98304.97
2023-04-26T04:11:16.945Z,98307.53
2023-04-26T04:13:43.454Z,98302.44
2023-04-26T04:16:10.491Z,98304.13
2023-04-26T04:18:37.039Z,98311.81
2023-04-26T04:21:03.707Z,98308.47
2023-04-26T04:23:30.166Z,98311.00
2023-04-26T04:25:56.604Z,98312.72
2023-04-26T04:28:23.829Z,98316.13
2023-04-26T04:30:50.945Z,98315.34
2023-04-26T04:33:17.873Z,98312.19
2023-04-26T04:35:44.894Z,98314.97
2023-04-26T04:38:11.476Z,98323.69
2023-04-26T04:40:38.000Z,98323.81
2023-04-26T04:43:05.460Z,98332.44
2023-04-26T04:45:34.166Z,98325.66
2023-04-26T04:48:09.331Z,98323.97
2023-04-26T04:50:35.929Z,98331.53
2023-04-26T04:53:03.852Z,98333.91
2023-04-26T04:55:30.509Z,98338.81
2023-04-26T04:57:56.944Z,98333.47
2023-04-26T05:00:54.803Z,98332.84
2023-04-26T05:03:21.478Z,98337.59
2023-04-26T05:05:48.162Z,98341.34
2023-04-26T05:08:17.006Z,98345.28
2023-04-26T05:10:43.423Z,98340.44
2023-04-26T05:13:10.107Z,98340.63
2023-04-26T05:15:36.755Z,98339.19
2023-04-26T05:18:03.703Z,98344.72
2023-04-26T05:20:30.901Z,98343.47
2023-04-26T05:22:58.439Z,98346.25
2023-04-26T05:25:24.906Z,98348.91
2023-04-26T05:27:53.494Z,98357.69
2023-04-26T05:30:23.075Z,98352.97
2023-04-26T05:32:50.551Z,98359.09
2023-04-26T05:35:17.269Z,98353.81
2023-04-26T05:37:43.909Z,98356.50
2023-04-26T05:40:12.372Z,98361.06
2023-04-26T05:42:38.872Z,98365.75
2023-04-26T05:45:05.790Z,98363.66
2023-04-26T05:47:32.289Z,98371.34
2023-04-26T05:49:58.748Z,98371.53
2023-04-26T05:52:25.171Z,98373.22
2023-04-26T05:54:51.610Z,98375.84
2023-04-26T05:57:19.301Z,98375.56
2023-04-26T05:59:46.482Z,98378.81
2023-04-26T06:02:13.099Z,98381.66
2023-04-26T06:04:39.736Z,98381.06
2023-04-26T06:07:14.079Z,98385.44
2023-04-26T06:09:41.000Z,98376.53
2023-04-26T06:12:07.774Z,98385.56
2023-04-26T06:14:34.240Z,98385.84
2023-04-26T06:17:00.823Z,98389.97
2023-04-26T06:19:27.310Z,98396.06
2023-04-26T06:21:55.411Z,98388.53
2023-04-26T06:24:24.181Z,98396.31
2023-04-26T06:26:50.660Z,98394.44
2023-04-26T06:29:17.420Z,98391.56
2023-04-26T06:31:44.015Z,98395.41
2023-04-26T06:34:10.427Z,98386.06
2023-04-26T06:36:36.967Z,98392.16
2023-04-26T06:39:06.817Z,98383.81
2023-04-26T06:41:33.371Z,98386.00
2023-04-26T06:43:59.832Z,98388.94
2023-04-26T06:46:26.321Z,98388.59
2023-04-26T06:48:55.129Z,98397.16
2023-04-26T06:51:21.817Z,98397.91
2023-04-26T06:53:51.331Z,98395.59
2023-04-26T06:56:18.862Z,98396.63
2023-04-26T06:59:14.867Z,98395.78
2023-04-26T07:01:41.377Z,98390.31
2023-04-26T07:04:10.865Z,98400.38
2023-04-26T07:06:39.076Z,98388.97
2023-04-26T07:09:05.600Z,98393.59
2023-04-26T07:11:32.319Z,98400.06
2023-04-26T07:13:58.814Z,98396.66
2023-04-26T07:16:27.002Z,98401.91
2023-04-26T07:18:53.870Z,98401.09
2023-04-26T07:21:20.531Z,98394.75
2023-04-26T07:23:46.987Z,98401.75
2023-04-26T07:26:13.522Z,98401.63
2023-04-26T07:28:45.567Z,98403.66
2023-04-26T07:31:12.681Z,98404.91
2023-04-26T07:33:39.344Z,98408.06
2023-04-26T07:36:06.173Z,98403.09
2023-04-26T07:38:32.890Z,98401.16
2023-04-26T07:41:01.141Z,98401.69
2023-04-26T07:43:28.161Z,98397.38
2023-04-26T07:45:54.647Z,98401.16
2023-04-26T07:48:21.368Z,98403.97
2023-04-26T07:50:47.841Z,98404.56
2023-04-26T07:53:14.362Z,98397.78
2023-04-26T07:55:40.838Z,98399.50
2023-04-26T07:58:08.152Z,98405.66
2023-04-26T08:00:38.485Z,98402.69
2023-04-26T08:03:05.531Z,98404.28
2023-04-26T08:05:32.537Z,98403.41
2023-04-26T08:08:01.182Z,98399.06
2023-04-26T08:10:27.972Z,98395.88
2023-04-26T08:12:54.520Z,98402.59
2023-04-26T08:15:21.067Z,98402.91
2023-04-26T08:17:48.285Z,98406.53
2023-04-26T08:20:18.133Z,98407.53
2023-04-26T08:22:44.578Z,98410.25
2023-04-26T08:25:11.394Z,98411.00
2023-04-26T08:27:38.024Z,98412.63
2023-04-26T08:30:05.595Z,98403.16
2023-04-26T08:32:34.151Z,98406.88
2023-04-26T08:35:00.949Z,98405.44
2023-04-26T08:37:29.528Z,98397.38
2023-04-26T08:39:56.480Z,98399.97
2023-04-26T08:42:27.583Z,98400.34
2023-04-26T08:44:54.872Z,98395.50
2023-04-26T08:47:56.968Z,98401.44
2023-04-26T08:50:24.067Z,98394.91
2023-04-26T08:52:52.403Z,98399.84
2023-04-26T08:55:20.335Z,98391.44
2023-04-26T08:57:48.274Z,98388.47
2023-04-26T09:00:16.846Z,98396.94
2023-04-26T09:02:48.445Z,98392.44
2023-04-26T09:05:15.356Z,98399.22
2023-04-26T09:07:44.572Z,98394.03
2023-04-26T09:10:13.465Z,98395.28
2023-04-26T09:12:40.767Z,98389.88
2023-04-26T09:15:08.435Z,98385.22
2023-04-26T09:17:39.310Z,98388.50
2023-04-26T09:20:28.774Z,98392.25
2023-04-26T09:23:06.418Z,98388.31
2023-04-26T09:25:33.716Z,98385.84
2023-04-26T09:28:01.922Z,98385.75
2023-04-26T09:30:28.901Z,98385.34
2023-04-26T09:32:57.481Z,98385.31
2023-04-26T09:35:36.117Z,98378.41
2023-04-26T09:38:09.726Z,98385.03
2023-04-26T09:40:49.921Z,98382.50
2023-04-26T09:43:21.894Z,98378.84
2023-04-26T09:45:56.827Z,98385.03
2023-04-26T09:48:25.808Z,98385.34
2023-04-26T09:50:54.691Z,98380.56
2023-04-26T09:53:39.552Z,98380.06
2023-04-26T09:56:11.215Z,98376.50
2023-04-26T09:58:39.761Z,98372.53
2023-04-26T10:01:08.064Z,98366.78
2023-04-26T10:03:35.218Z,98363.47
2023-04-26T10:06:01.824Z,98366.00
2023-04-26T10:08:28.412Z,98364.91
2023-04-26T10:10:55.565Z,98366.91
2023-04-26T10:13:22.158Z,98363.88
2023-04-26T10:15:49.087Z,98370.03
2023-04-26T10:18:15.930Z,98361.88
2023-04-26T10:20:47.829Z,98358.41
2023-04-26T10:23:21.296Z,98353.88
2023-04-26T10:25:49.404Z,98360.16
2023-04-26T10:28:39.045Z,98357.63
2023-04-26T10:31:07.288Z,98360.16
2023-04-26T10:33:33.966Z,98361.22
2023-04-26T10:36:05.649Z,98356.50
2023-04-26T10:38:32.815Z,98355.00
2023-04-26T10:41:27.831Z,98353.59
2023-04-26T10:43:58.493Z,98354.50
2023-04-26T10:46:39.813Z,98352.16
2023-04-26T10:49:25.767Z,98348.69
2023-04-26T10:52:12.448Z,98352.06
2023-04-26T10:54:58.174Z,98349.63
2023-04-26T10:57:48.583Z,98349.81
2023-04-26T11:00:26.818Z,98350.78
2023-04-26T11:03:06.944Z,98348.69
2023-04-26T11:05:50.736Z,98330.94
2023-04-26T11:08:20.464Z,98343.31
2023-04-26T11:10:52.732Z,98347.78
2023-04-26T11:13:20.419Z,98345.13
2023-04-26T11:15:47.496Z,98339.31
2023-04-26T11:18:13.936Z,98340.19
2023-04-26T11:20:40.367Z,98338.81
2023-04-26T11:23:07.785Z,98331.13
2023-04-26T11:25:34.263Z,98331.13
2023-04-26T11:28:02.309Z,98323.09
2023-04-26T11:30:32.752Z,98335.72
2023-04-26T11:33:06.176Z,98327.84
2023-04-26T11:35:36.481Z,98329.94
2023-04-26T11:38:05.564Z,98326.63
2023-04-26T11:40:33.270Z,98319.81
2023-04-26T11:43:05.079Z,98317.47
2023-04-26T11:45:34.975Z,98320.25
2023-04-26T11:48:03.776Z,98316.09
2023-04-26T11:50:33.131Z,98319.00
2023-04-26T11:53:01.072Z,98315.25
2023-04-26T11:55:29.046Z,98321.59
2023-04-26T11:57:55.972Z,98319.25
2023-04-26T12:00:23.037Z,98320.78
2023-04-26T12:02:50.772Z,98318.97
2023-04-26T12:05:22.231Z,98309.00
2023-04-26T12:08:00.319Z,98311.06
2023-04-26T12:10:37.650Z,98312.13
2023-04-26T12:13:04.088Z,98306.94
2023-04-26T12:15:32.504Z,98306.66
2023-04-26T12:17:58.972Z,98309.41
2023-04-26T12:20:31.377Z,98308.03
2023-04-26T12:23:18.057Z,98307.03
2023-04-26T12:25:55.981Z,98303.69
2023-04-26T12:28:23.556Z,98305.00
2023-04-26T12:30:51.948Z,98299.00
2023-04-26T12:33:22.787Z,98297.03
2023-04-26T12:35:50.214Z,98295.09
2023-04-26T12:38:17.007Z,98298.28
2023-04-26T12:40:45.804Z,98297.31
2023-04-26T12:43:12.317Z,98294.56
2023-04-26T12:45:38.751Z,98294.66
2023-04-26T12:48:05.482Z,98292.31
2023-04-26T12:50:32.194Z,98300.69
2023-04-26T12:52:58.579Z,98292.19
2023-04-26T12:55:25.151Z,98296.59
2023-04-26T12:57:51.728Z,98294.53
2023-04-26T13:00:18.502Z,98289.34
2023-04-26T13:02:46.533Z,98288.16
2023-04-26T13:05:13.419Z,98286.22
2023-04-26T13:07:42.786Z,98291.84
2023-04-26T13:10:12.692Z,98284.34
2023-04-26T13:12:40.255Z,98281.19
2023-04-26T13:15:08.052Z,98282.91
2023-04-26T13:17:38.441Z,98284.44
2023-04-26T13:20:06.613Z,98290.75
2023-04-26T13:22:33.785Z,98294.63
2023-04-26T13:25:00.415Z,98294.81
2023-04-26T13:27:29.124Z,98293.22
2023-04-26T13:29:57.074Z,98288.41
2023-04-26T13:32:23.548Z,98280.50
2023-04-26T13:34:50.067Z,98280.81
2023-04-26T13:37:17.703Z,98285.16
2023-04-26T13:39:44.231Z,98284.50
2023-04-26T13:42:11.362Z,98280.34
2023-04-26T13:44:37.777Z,98288.78
2023-04-26T13:47:04.354Z,98288.53
2023-04-26T13:49:31.058Z,98281.44
2023-04-26T13:51:57.860Z,98280.66
2023-04-26T13:54:26.022Z,98281.44
2023-04-26T13:56:53.505Z,98280.81
2023-04-26T13:59:20.444Z,98282.50
2023-04-26T14:01:46.984Z,98288.22
2023-04-26T14:04:13.759Z,98287.75
2023-04-26T14:06:40.685Z,98283.94
2023-04-26T14:09:07.113Z,98284.91
2023-04-26T14:11:33.526Z,98284.72
2023-04-26T14:14:00.054Z,98291.03
2023-04-26T14:16:26.993Z,98287.06
2023-04-26T14:18:53.513Z,98283.72
2023-04-26T14:21:20.049Z,98282.44
2023-04-26T14:23:46.708Z,98274.63
2023-04-26T14:26:13.621Z,98278.56
2023-04-26T14:28:41.087Z,98285.50
2023-04-26T14:31:08.180Z,98273.88
2023-04-26T14:33:34.972Z,98278.81
2023-04-26T14:36:01.502Z,98273.94
2023-04-26T14:38:27.980Z,98278.03
2023-04-26T14:40:54.435Z,98275.66
2023-04-26T14:43:20.981Z,98278.78
2023-04-26T14:45:50.563Z,98277.09
2023-04-26T14:48:17.314Z,98280.34
2023-04-26T14:50:43.872Z,98278.91
2023-04-26T14:53:10.565Z,98281.78
2023-04-26T14:55:37.314Z,98275.66
2023-04-26T14:58:03.850Z,98267.81
2023-04-26T15:00:30.779Z,98267.88
2023-04-26T15:02:58.170Z,98267.63
2023-04-26T15:05:25.121Z,98266.25
2023-04-26T15:07:52.131Z,98261.09
2023-04-26T15:10:18.693Z,98264.41
2023-04-26T15:12:45.887Z,98259.84
2023-04-26T15:15:12.411Z,98265.28
2023-04-26T15:17:38.848Z,98267.84
2023-04-26T15:20:06.437Z,98264.81
2023-04-26T15:22:35.307Z,98268.84
2023-04-26T15:25:04.275Z,98272.56
2023-04-26T15:27:30.684Z,98272.41
2023-04-26T15:29:57.336Z,98269.81
2023-04-26T15:32:23.864Z,98262.34
2023-04-26T15:34:50.493Z,98265.75
2023-04-26T15:37:17.168Z,98260.06
2023-04-26T15:39:43.728Z,98260.94
2023-04-26T15:42:11.136Z,98264.44
2023-04-26T15:44:37.664Z,98268.41
2023-04-26T15:47:04.197Z,98267.47
2023-04-26T15:49:30.931Z,98259.13
2023-04-26T15:51:57.404Z,98261.00
2023-04-26T15:54:24.105Z,98267.41
2023-04-26T15:56:50.569Z,98256.72
2023-04-26T15:59:17.014Z,98262.47
2023-04-26T16:01:43.743Z,98258.63
2023-04-26T16:04:10.739Z,98258.41
2023-04-26T16:06:37.491Z,98255.72
2023-04-26T16:09:17.216Z,98260.00
2023-04-26T16:11:51.270Z,98261.66
2023-04-26T16:14:17.866Z,98258.53
2023-04-26T16:16:46.025Z,98250.84
2023-04-26T16:19:13.006Z,98253.38
2023-04-26T16:21:40.796Z,98250.06
2023-04-26T16:24:11.531Z,98251.88
2023-04-26T16:26:38.075Z,98243.50
2023-04-26T16:29:04.907Z,98248.75
2023-04-26T16:31:32.366Z,98248.72
2023-04-26T16:33:59.144Z,98243.16
2023-04-26T16:36:27.243Z,98243.84
2023-04-26T16:38:54.438Z,98242.97
2023-04-26T16:41:21.164Z,98244.44
2023-04-26T16:43:47.654Z,98244.38
2023-04-26T16:46:14.174Z,98243.41
2023-04-26T16:48:40.798Z,98243.69
2023-04-26T16:51:07.990Z,98242.75
2023-04-26T16:53:36.039Z,98239.56
2023-04-26T16:56:02.704Z,98239.72
2023-04-26T16:58:29.451Z,98246.38
2023-04-26T17:00:56.566Z,98249.03
2023-04-26T17:03:24.176Z,98247.25
2023-04-26T17:05:51.122Z,98250.03
2023-04-26T17:08:18.717Z,98255.16
2023-04-26T17:10:46.295Z,98243.97
2023-04-26T17:13:13.310Z,98244.28
2023-04-26T17:15:41.188Z,98253.84
2023-04-26T17:18:08.803Z,98253.22
2023-04-26T17:20:35.901Z,98257.59
2023-04-26T17:23:04.312Z,98256.19
2023-04-26T17:25:31.233Z,98262.63
2023-04-26T17:27:57.871Z,98257.38
2023-04-26T17:30:24.411Z,98255.28
2023-04-26T17:32:51.506Z,98252.91
2023-04-26T17:35:18.095Z,98260.56
2023-04-26T17:37:49.845Z,98265.84
2023-04-26T17:40:17.988Z,98261.94
2023-04-26T17:42:45.352Z,98263.25
2023-04-26T17:45:14.245Z,98272.16
2023-04-26T17:47:41.656Z,98268.50
2023-04-26T17:50:09.213Z,98271.88
2023-04-26T17:52:35.753Z,98273.72
2023-04-26T17:55:02.396Z,98270.03
2023-04-26T17:57:28.888Z,98279.44
2023-04-26T17:59:55.357Z,98280.50
2023-04-26T18:02:21.924Z,98280.63
2023-04-26T18:04:48.959Z,98279.91
2023-04-26T18:07:16.564Z,98277.44
2023-04-26T18:09:43.162Z,98276.69
2023-04-26T18:12:09.716Z,98279.47
2023-04-26T18:14:36.430Z,98289.16
2023-04-26T18:17:04.493Z,98291.00
2023-04-26T18:19:30.993Z,98293.81
2023-04-26T18:21:57.528Z,98298.31
2023-04-26T18:24:24.072Z,98303.72
2023-04-26T18:26:50.639Z,98305.44
2023-04-26T18:29:32.472Z,98304.00
2023-04-26T18:31:59.191Z,98305.06
2023-04-26T18:34:25.802Z,98309.47
2023-04-26T18:36:52.240Z,98302.91
2023-04-26T18:39:21.277Z,98306.69
2023-04-26T18:41:52.086Z,98313.63
2023-04-26T18:44:19.038Z,98313.03
2023-04-26T18:46:46.682Z,98308.03
2023-04-26T18:49:16.331Z,98316.81
2023-04-26T18:51:49.847Z,98319.63
2023-04-26T18:54:22.651Z,98319.06
2023-04-26T18:56:49.113Z,98320.84
2023-04-26T18:59:18.020Z,98324.44
2023-04-26T19:01:49.306Z,98326.31
2023-04-26T19:04:15.986Z,98328.22
2023-04-26T19:06:43.751Z,98333.44
2023-04-26T19:09:11.798Z,98334.50
2023-04-26T19:11:38.655Z,98324.38
2023-04-26T19:14:05.192Z,98332.97
2023-04-26T19:16:32.223Z,98336.53
2023-04-26T19:18:58.835Z,98335.81
2023-04-26T19:21:25.373Z,98341.00
2023-04-26T19:23:51.940Z,98337.66
2023-04-26T19:26:18.483Z,98338.63
2023-04-26T19:28:45.032Z,98338.78
2023-04-26T19:31:11.720Z,98337.94
2023-04-26T19:33:38.241Z,98338.09
2023-04-26T19:36:04.849Z,98344.16
2023-04-26T19:38:31.489Z,98339.16
2023-04-26T19:40:57.966Z,98340.19
2023-04-26T19:43:24.546Z,98344.47
2023-04-26T19:45:51.313Z,98345.38
2023-04-26T19:48:17.775Z,98336.84
2023-04-26T19:50:46.036Z,98343.72
2023-04-26T19:53:14.854Z,98341.19
2023-04-26T19:55:42.163Z,98342.06
2023-04-26T19:58:10.367Z,98332.69
2023-04-26T20:00:38.039Z,98337.03
2023-04-26T20:03:05.415Z,98339.59
2023-04-26T20:05:32.252Z,98337.97
2023-04-26T20:07:59.534Z,98339.75
2023-04-26T20:10:34.095Z,98337.22
2023-04-26T20:13:01.468Z,98348.34
2023-04-26T20:15:28.274Z,98340.72
2023-04-26T20:17:55.113Z,98341.59
2023-04-26T20:20:21.663Z,98349.31
2023-04-26T20:22:48.155Z,98354.44
2023-04-26T20:25:14.657Z,98353.59
2023-04-26T20:27:41.587Z,98351.94
2023-04-26T20:30:29.354Z,98358.78
2023-04-26T20:32:56.230Z,98360.53
2023-04-26T20:35:23.049Z,98356.28
2023-04-26T20:37:49.634Z,98357.19
2023-04-26T20:40:16.507Z,98359.78
2023-04-26T20:42:43.254Z,98357.25
2023-04-26T20:45:10.239Z,98362.38
2023-04-26T20:47:39.623Z,98359.00
2023-04-26T20:50:06.703Z,98365.84
2023-04-26T20:52:33.197Z,98366.69
2023-04-26T20:54:59.629Z,98370.97
2023-04-26T20:57:26.225Z,98370.13
2023-04-26T20:59:53.015Z,98366.72
2023-04-26T21:02:21.746Z,98367.59
2023-04-26T21:04:48.253Z,98372.72
2023-04-26T21:07:18.960Z,98374.44
2023-04-26T21:09:45.716Z,98373.59
2023-04-26T21:12:12.151Z,98371.88
2023-04-26T21:14:38.587Z,98368.47
2023-04-26T21:17:05.795Z,98375.31
2023-04-26T21:19:32.465Z,98374.47
2023-04-26T21:21:58.935Z,98369.31
2023-04-26T21:24:30.796Z,98368.44
2023-04-26T21:26:57.195Z,98371.81
2023-04-26T21:29:25.903Z,98373.50
2023-04-26T21:31:52.345Z,98375.19
2023-04-26T21:34:18.744Z,98376.03
2023-04-26T21:36:45.315Z,98376.00
2023-04-26T21:39:11.949Z,98367.50
2023-04-26T21:41:38.612Z,98376.88
2023-04-26T21:44:08.068Z,98373.44
2023-04-26T21:46:34.576Z,98372.59
2023-04-26T21:49:01.047Z,98375.16
2023-04-26T21:51:27.847Z,98376.00
2023-04-26T21:53:54.257Z,98376.00
2023-04-26T21:56:20.779Z,98380.31
2023-04-26T21:58:47.152Z,98382.84
2023-04-26T22:01:17.916Z,98379.44
2023-04-26T22:03:44.483Z,98392.28
2023-04-26T22:06:20.360Z,98392.31
2023-04-26T22:08:46.785Z,98396.50
2023-04-26T22:11:13.240Z,98398.22
2023-04-26T22:13:39.674Z,98401.69
2023-04-26T22:16:06.344Z,98401.69
2023-04-26T22:18:32.849Z,98401.69
2023-04-26T22:20:59.256Z,98408.53
2023-04-26T22:23:25.888Z,98405.13
2023-04-26T22:25:52.477Z,98406.81
2023-04-26T22:28:18.876Z,98403.47
2023-04-26T22:30:45.324Z,98406.06
2023-04-26T22:33:12.221Z,98402.66
2023-04-26T22:35:38.883Z,98407.78
2023-04-26T22:38:05.460Z,98416.31
2023-04-26T22:40:32.627Z,98411.19
2023-04-26T22:42:59.077Z,98408.63
2023-04-26T22:45:26.026Z,98413.72
2023-04-26T22:47:52.538Z,98415.44
2023-04-26T22:50:22.149Z,98414.56
2023-04-26T22:52:49.668Z,98413.72
2023-04-26T22:55:16.345Z,98419.66
2023-04-26T22:57:42.816Z,98413.72
2023-04-26T23:00:11.789Z,98413.72
2023-04-26T23:02:38.239Z,98423.06
2023-04-26T23:05:05.350Z,98423.94
2023-04-26T23:07:33.215Z,98417.97
2023-04-26T23:09:59.637Z,98421.41
2023-04-26T23:12:26.095Z,98415.47
2023-04-26T23:14:52.471Z,98416.38
2023-04-26T23:17:20.405Z,98417.22
2023-04-26T23:19:46.902Z,98426.59
2023-04-26T23:22:15.728Z,98422.28
2023-04-26T23:24:42.057Z,98422.28
2023-04-26T23:27:08.475Z,98427.38
2023-04-26T23:29:34.964Z,98431.66
2023-04-26T23:32:01.389Z,98425.72
2023-04-26T23:34:27.803Z,98425.72
2023-04-26T23:36:54.231Z,98429.09
2023-04-26T23:39:20.985Z,98435.94
2023-04-26T23:41:47.416Z,98441.06
2023-04-26T23:44:13.851Z,98440.19
2023-04-26T23:46:40.483Z,98443.59
2023-04-26T23:49:07.060Z,98440.16
2023-04-26T23:51:33.498Z,98441.03
2023-04-26T23:53:59.952Z,98438.47
2023-04-26T23:56:26.407Z,98432.50
2023-04-26T23:58:54.972Z,98433.38
